McKinney, TX

8:41 AM CDT on July 07, 2015 (GMT -0500)
Collin County Regional | | Change Station
CLOSE
Current Station
Airport
Location: McKinney,
Elevation: 584 ft
Nearby Weather Stations

Elev 584 ft 33.18 °N, 96.59 °W | Updated 48 minutes ago

Overcast
Overcast
80 °F
Feels Like 84 °F
N
14
Wind Variable Wind from South

Today
High -- | Low -- °F
--% Chance of Precip.
Yesterday
High -- | Low -- °F
Precip. -- in
6:23 AM 8:38 PM
Waning Gibbous, 65% visible
Pressure 29.96 in
Visibility 10.0 miles
Clouds Mostly Cloudy 2100 ft
Overcast 2700 ft
Heat Index 84 °F
Dew Point 73 °F
Humidity 79%
Rainfall 0.00 in
Snow Depth Not available.
UV 0 out of 12
Pollen 4.50 out of 12
Air Quality Not available.
Flu Activity Not available.
METAR KTKI 071253Z 19012KT 10SM BKN021 OVC027 27/23 A2997 RMK AO2 SLP144 T02670228

More Conditions Fewer Conditions

Pressure 29.96 in
Visibility 10.0 miles
Clouds Mostly Cloudy 2100 ft
Overcast 2700 ft
Heat Index 84 °F
Dew Point 73 °F
Humidity 79%
Rainfall 0.00 in
Snow Depth Not available.
UV 0 out of 12
Pollen 4.50 out of 12
Air Quality Not available.
Flu Activity Not available.
METAR KTKI 071253Z 19012KT 10SM BKN021 OVC027 27/23 A2997 RMK AO2 SLP144 T02670228

More Conditions Fewer Conditions

Nowcast | as of 6:53 am CDT on July 7, 2015

Scattered showers and thunderstorms west of a line from Comanche to Gainesville will continue to move east this morning. Cloud to ground lightning and heavy rain will accompany some of these storms. Otherwise...mostly cloudy skies and humid conditions will prevail across north and central Texas this morning.

×

10-Day Weather Forecast

×

Almanac

Astronomy

Jul. 07, 2015 Rise Set
Actual Time
Civil Twilight
Nautical Twilight
Astronomical Twilight
Moon
Length of Visible Light
Length of Day
Tomorrow will be .
, % of the Moon is Illuminated

Today's Extremes

State Highs State Lows

Community

WunderPhotos

Upload Photos

1,835,797 photos uploaded!

WunderBlogs® & News

Nearby

Air Quality

  Air Quality AQ Index Pollutant
Not available.

Snow Depth

Station Depth Elevation

Earthquake Activity

City Distance Mag. Time & Date
Minimum magnitude displayed is 2.5.

Coastal Water Temperatures

Place Temperature

Stations

Nearby Weather Stations

Station Location Temp. Windchill Dew Point Humidity Wind Precip. Elev Updated Type